LCY weather

London City Airport
London, England, United Kingdom

Public forecast

Using degrees Celsius for public forecast. Weather courtesy of forecast.io.

Current aviation weather report (METAR) for London City Airport

Retrieved 2019/10/19 03:20 UTC (30 minutes ago):

EGLC 190320Z AUTO 20006KT 150V240 9999 NCD 12/09 Q0998

Aviation forecast (TAF) for London City Airport

Forecast is more than 12 hours old.

Retrieved 2018/10/15 21:30 UTC (1 year ago):

TAF EGLC 152119Z 1521/1621 CNL